메인 페이지
METAR-TAF:

METAR-TAF

공항 :

로사리오, 아르헨티나

위도: 32-55S, 경도: 060-47W, 고도: 25m

현재 날씨관측

예보는 51분 전, 14:00시(UTC)에 발표되었습니다.
12kt
온도 13°C
습도 77%
기압 1018 hPa
시정 10km 이상
1500m 미만 상공 구름 및 적란운 없음

METAR: SAAR 201400Z 09012KT CAVOK 13/09 Q1018

시각: 11:51 (14:51 UTC)

예보

예보는 3 시간 51분 전, 11:00시(UTC)에 발표되었습니다.
예보 대상 시간: 20일 12시부터 21일 12시까지 (UTC)
10kt
시정 10km 이상
1500m 미만 상공 구름 및 적란운 없음
전환 중
20일 13시부터 20일 15시까지 (UTC)
시정 10km 이상
고도 2500ft 상공 구름 보통
전환 중
21일 01시부터 21일 03시까지 (UTC)
고도 1500ft 상공 구름 보통
고도 4000ft 상공 구름 많음
일시적
21일 03시부터 21일 12시까지 (UTC)
시정: 6000m
고도 600ft 상공 구름 보통
고도 1500ft 상공 구름 많음
고도 4000ft 상공 흐림
약한이슬비, 박무,

TAF: SAAR 201100Z 2012/2112 09010KT CAVOK TX18/2018Z TN07/2012Z BECMG 2013/2015 9999 SCT025 BECMG 2101/2103 SCT015 BKN040 TEMPO 2103/2112 6000 -DZ BR SCT006 BKN015 OVC040

4,000개 이상의 공항 관측 자료 및 예보 (METAR 및 TAF 보고).

지도상에서 검색 가능한 기상관측소가 노란 점과 빨간 점으로 표시되어 있습니다.

기상관측소 명을 보려면 표시 위로 마우스를 이동하세요.

날씨 관측과 예보를 보려면 클릭하세요.

지도 변경 : 확대하려면 엑스 표시가 있는 녹색 버튼, 축소하려면 빼기 표시가 있는 녹색 버튼, 다음 페이지의 지도를 보려면 녹색 화살표를 클릭하세요.


METAR-TAF: